sensor_id;sensor_type;location;lat;lon;timestamp;pressure;altitude;pressure_sealevel;temperature;humidity
34205;BME280;20471;49.680;20.074;2022-10-16T00:01:27;97410.36;;;11.39;74.67
34205;BME280;20471;49.680;20.074;2022-10-16T00:03:57;97405.89;;;11.42;74.63
34205;BME280;20471;49.680;20.074;2022-10-16T00:06:25;97406.92;;;11.41;74.56
34205;BME280;20471;49.680;20.074;2022-10-16T00:08:53;97414.70;;;11.47;74.52
34205;BME280;20471;49.680;20.074;2022-10-16T00:11:25;97407.49;;;11.50;74.42
34205;BME280;20471;49.680;20.074;2022-10-16T00:14:00;97408.52;;;11.55;74.36
34205;BME280;20471;49.680;20.074;2022-10-16T00:16:28;97415.43;;;11.61;74.36
34205;BME280;20471;49.680;20.074;2022-10-16T00:18:55;97410.12;;;11.63;74.37
34205;BME280;20471;49.680;20.074;2022-10-16T00:21:24;97417.06;;;11.68;74.12
34205;BME280;20471;49.680;20.074;2022-10-16T00:23:54;97423.77;;;11.75;74.15
34205;BME280;20471;49.680;20.074;2022-10-16T00:26:26;97420.14;;;11.78;74.28
34205;BME280;20471;49.680;20.074;2022-10-16T00:28:53;97425.13;;;11.81;74.23
34205;BME280;20471;49.680;20.074;2022-10-16T00:31:21;97432.19;;;11.82;74.19
34205;BME280;20471;49.680;20.074;2022-10-16T00:33:49;97428.72;;;11.84;74.16
34205;BME280;20471;49.680;20.074;2022-10-16T00:36:19;97427.37;;;11.84;74.12
34205;BME280;20471;49.680;20.074;2022-10-16T00:38:50;97427.16;;;11.86;74.10
34205;BME280;20471;49.680;20.074;2022-10-16T00:41:20;97431.00;;;11.87;74.02
34205;BME280;20471;49.680;20.074;2022-10-16T00:43:58;97415.08;;;11.88;73.83
34205;BME280;20471;49.680;20.074;2022-10-16T00:46:38;97422.33;;;11.95;73.66
34205;BME280;20471;49.680;20.074;2022-10-16T00:49:18;97425.59;;;12.03;73.52
34205;BME280;20471;49.680;20.074;2022-10-16T00:51:45;97435.97;;;12.06;73.53
34205;BME280;20471;49.680;20.074;2022-10-16T00:54:27;97438.73;;;12.09;73.47
34205;BME280;20471;49.680;20.074;2022-10-16T00:56:59;97447.16;;;12.10;73.49
34205;BME280;20471;49.680;20.074;2022-10-16T00:59:38;97445.50;;;12.09;73.65
34205;BME280;20471;49.680;20.074;2022-10-16T01:02:08;97451.75;;;12.09;73.65
34205;BME280;20471;49.680;20.074;2022-10-16T01:04:39;97446.27;;;12.07;73.46
34205;BME280;20471;49.680;20.074;2022-10-16T01:07:20;97448.21;;;12.09;73.33
34205;BME280;20471;49.680;20.074;2022-10-16T01:18:47;97459.24;;;12.23;73.05
34205;BME280;20471;49.680;20.074;2022-10-16T01:21:31;97460.69;;;12.25;73.00
34205;BME280;20471;49.680;20.074;2022-10-16T01:24:27;97450.99;;;12.27;72.89
34205;BME280;20471;49.680;20.074;2022-10-16T01:29:52;97446.95;;;12.36;72.54
34205;BME280;20471;49.680;20.074;2022-10-16T01:32:41;97451.93;;;12.39;72.45
34205;BME280;20471;49.680;20.074;2022-10-16T01:35:32;97451.80;;;12.43;72.43
34205;BME280;20471;49.680;20.074;2022-10-16T01:38:12;97454.78;;;12.44;72.32
34205;BME280;20471;49.680;20.074;2022-10-16T01:40:54;97461.73;;;12.49;72.24
34205;BME280;20471;49.680;20.074;2022-10-16T01:43:33;97456.09;;;12.51;72.28
34205;BME280;20471;49.680;20.074;2022-10-16T01:46:01;97456.63;;;12.50;72.33
34205;BME280;20471;49.680;20.074;2022-10-16T01:48:29;97452.86;;;12.51;72.32
34205;BME280;20471;49.680;20.074;2022-10-16T01:51:05;97454.52;;;12.52;72.37
34205;BME280;20471;49.680;20.074;2022-10-16T01:53:33;97465.66;;;12.53;72.34
34205;BME280;20471;49.680;20.074;2022-10-16T01:56:02;97465.66;;;12.53;72.30
34205;BME280;20471;49.680;20.074;2022-10-16T01:58:33;97465.97;;;12.54;72.25
34205;BME280;20471;49.680;20.074;2022-10-16T02:01:03;97464.92;;;12.55;72.30
34205;BME280;20471;49.680;20.074;2022-10-16T02:03:32;97461.59;;;12.53;72.34
34205;BME280;20471;49.680;20.074;2022-10-16T02:06:00;97468.89;;;12.53;72.23
34205;BME280;20471;49.680;20.074;2022-10-16T02:08:28;97468.15;;;12.55;72.37
34205;BME280;20471;49.680;20.074;2022-10-16T02:10:57;97472.27;;;12.57;72.32
34205;BME280;20471;49.680;20.074;2022-10-16T02:13:35;97474.97;;;12.57;72.29
34205;BME280;20471;49.680;20.074;2022-10-16T02:16:18;97473.09;;;12.58;72.39
34205;BME280;20471;49.680;20.074;2022-10-16T02:18:44;97472.88;;;12.59;72.22
34205;BME280;20471;49.680;20.074;2022-10-16T02:21:17;97467.77;;;12.60;72.03
34205;BME280;20471;49.680;20.074;2022-10-16T02:29:12;97475.16;;;12.72;71.86
34205;BME280;20471;49.680;20.074;2022-10-16T02:31:43;97466.07;;;12.75;71.78
34205;BME280;20471;49.680;20.074;2022-10-16T02:34:13;97474.28;;;12.78;71.59
34205;BME280;20471;49.680;20.074;2022-10-16T02:36:42;97471.10;;;12.81;71.46
34205;BME280;20471;49.680;20.074;2022-10-16T02:39:09;97477.22;;;12.85;71.41
34205;BME280;20471;49.680;20.074;2022-10-16T02:41:37;97481.36;;;12.88;71.21
34205;BME280;20471;49.680;20.074;2022-10-16T02:44:03;97478.52;;;12.92;71.18
34205;BME280;20471;49.680;20.074;2022-10-16T02:46:30;97471.49;;;12.93;71.06
34205;BME280;20471;49.680;20.074;2022-10-16T02:48:56;97475.03;;;12.94;71.07
34205;BME280;20471;49.680;20.074;2022-10-16T02:51:23;97479.09;;;12.94;71.12
34205;BME280;20471;49.680;20.074;2022-10-16T02:53:50;97479.09;;;12.94;71.18
34205;BME280;20471;49.680;20.074;2022-10-16T02:56:16;97477.44;;;12.93;71.16
34205;BME280;20471;49.680;20.074;2022-10-16T02:58:43;97468.48;;;12.92;70.93
34205;BME280;20471;49.680;20.074;2022-10-16T03:01:09;97476.25;;;12.89;70.89
34205;BME280;20471;49.680;20.074;2022-10-16T03:03:38;97483.02;;;12.89;70.89
34205;BME280;20471;49.680;20.074;2022-10-16T03:06:05;97471.88;;;12.88;70.84
34205;BME280;20471;49.680;20.074;2022-10-16T03:08:32;97485.13;;;12.87;70.79
34205;BME280;20471;49.680;20.074;2022-10-16T03:10:58;97485.65;;;12.86;70.70
34205;BME280;20471;49.680;20.074;2022-10-16T03:13:25;97487.22;;;12.85;70.56
34205;BME280;20471;49.680;20.074;2022-10-16T03:15:52;97490.55;;;12.87;70.51
34205;BME280;20471;49.680;20.074;2022-10-16T03:18:18;97491.67;;;12.88;70.43
34205;BME280;20471;49.680;20.074;2022-10-16T03:20:44;97492.50;;;12.89;70.21
34205;BME280;20471;49.680;20.074;2022-10-16T03:23:11;97496.88;;;12.90;70.20
34205;BME280;20471;49.680;20.074;2022-10-16T03:25:38;97488.75;;;12.90;70.12
34205;BME280;20471;49.680;20.074;2022-10-16T03:28:05;97488.00;;;12.92;70.00
34205;BME280;20471;49.680;20.074;2022-10-16T03:30:31;97492.64;;;12.94;69.97
34205;BME280;20471;49.680;20.074;2022-10-16T03:32:58;97485.56;;;12.93;69.89
34205;BME280;20471;49.680;20.074;2022-10-16T03:35:24;97488.00;;;12.92;69.80
34205;BME280;20471;49.680;20.074;2022-10-16T03:37:51;97491.45;;;12.90;69.72
34205;BME280;20471;49.680;20.074;2022-10-16T03:40:19;97494.83;;;12.85;69.76
34205;BME280;20471;49.680;20.074;2022-10-16T03:42:45;97492.25;;;12.81;69.78
34205;BME280;20471;49.680;20.074;2022-10-16T03:45:12;97494.91;;;12.79;69.78
34205;BME280;20471;49.680;20.074;2022-10-16T03:47:38;97496.39;;;12.75;69.77
34205;BME280;20471;49.680;20.074;2022-10-16T03:50:06;97494.51;;;12.75;69.67
34205;BME280;20471;49.680;20.074;2022-10-16T03:52:33;97502.72;;;12.78;69.67
34205;BME280;20471;49.680;20.074;2022-10-16T03:54:59;97504.69;;;12.80;69.60
34205;BME280;20471;49.680;20.074;2022-10-16T03:57:26;97515.05;;;12.83;69.55
34205;BME280;20471;49.680;20.074;2022-10-16T03:59:52;97514.44;;;12.81;69.59
34205;BME280;20471;49.680;20.074;2022-10-16T04:02:19;97517.45;;;12.82;69.51
34205;BME280;20471;49.680;20.074;2022-10-16T04:04:45;97521.73;;;12.80;69.47
34205;BME280;20471;49.680;20.074;2022-10-16T04:07:12;97527.72;;;12.80;69.43
34205;BME280;20471;49.680;20.074;2022-10-16T04:09:39;97537.99;;;12.80;69.46
34205;BME280;20471;49.680;20.074;2022-10-16T04:12:05;97537.77;;;12.82;69.40
34205;BME280;20471;49.680;20.074;2022-10-16T04:14:32;97532.66;;;12.83;69.37
34205;BME280;20471;49.680;20.074;2022-10-16T04:16:58;97538.08;;;12.83;69.47
34205;BME280;20471;49.680;20.074;2022-10-16T04:19:25;97531.61;;;12.84;69.38
34205;BME280;20471;49.680;20.074;2022-10-16T04:21:52;97542.14;;;12.83;69.36
34205;BME280;20471;49.680;20.074;2022-10-16T04:24:18;97538.60;;;12.82;69.31
34205;BME280;20471;49.680;20.074;2022-10-16T04:26:45;97546.20;;;12.83;69.29
34205;BME280;20471;49.680;20.074;2022-10-16T04:29:12;97553.20;;;12.81;69.26
34205;BME280;20471;49.680;20.074;2022-10-16T04:31:38;97551.17;;;12.77;69.25
34205;BME280;20471;49.680;20.074;2022-10-16T04:34:05;97556.19;;;12.73;69.31
34205;BME280;20471;49.680;20.074;2022-10-16T04:36:31;97555.22;;;12.68;69.33
34205;BME280;20471;49.680;20.074;2022-10-16T04:38:58;97551.01;;;12.56;69.20
34205;BME280;20471;49.680;20.074;2022-10-16T04:41:25;97552.42;;;12.49;69.36
34205;BME280;20471;49.680;20.074;2022-10-16T04:43:51;97555.88;;;12.47;69.47
34205;BME280;20471;49.680;20.074;2022-10-16T04:46:18;97556.30;;;12.44;69.50
34205;BME280;20471;49.680;20.074;2022-10-16T04:48:45;97551.66;;;12.42;69.58
34205;BME280;20471;49.680;20.074;2022-10-16T04:51:12;97552.77;;;12.44;69.53
34205;BME280;20471;49.680;20.074;2022-10-16T04:53:39;97547.91;;;12.43;69.52
34205;BME280;20471;49.680;20.074;2022-10-16T04:56:05;97548.49;;;12.45;69.49
34205;BME280;20471;49.680;20.074;2022-10-16T04:58:32;97542.25;;;12.45;69.51
34205;BME280;20471;49.680;20.074;2022-10-16T05:00:59;97548.49;;;12.45;69.48
34205;BME280;20471;49.680;20.074;2022-10-16T05:03:25;97552.34;;;12.47;69.40
34205;BME280;20471;49.680;20.074;2022-10-16T05:05:53;97552.13;;;12.48;69.43
34205;BME280;20471;49.680;20.074;2022-10-16T05:08:19;97565.23;;;12.51;69.43
34205;BME280;20471;49.680;20.074;2022-10-16T05:10:46;97557.72;;;12.53;69.39
34205;BME280;20471;49.680;20.074;2022-10-16T05:13:12;97567.20;;;12.53;69.42
34205;BME280;20471;49.680;20.074;2022-10-16T05:15:39;97567.50;;;12.54;69.35
34205;BME280;20471;49.680;20.074;2022-10-16T05:18:06;97574.58;;;12.55;69.35
34205;BME280;20471;49.680;20.074;2022-10-16T05:20:33;97570.73;;;12.54;69.29
34205;BME280;20471;49.680;20.074;2022-10-16T05:22:59;97566.16;;;12.54;69.36
34205;BME280;20471;49.680;20.074;2022-10-16T05:25:26;97570.80;;;12.56;69.35
34205;BME280;20471;49.680;20.074;2022-10-16T05:27:52;97571.05;;;12.55;69.37
34205;BME280;20471;49.680;20.074;2022-10-16T05:30:19;97574.58;;;12.55;69.41
34205;BME280;20471;49.680;20.074;2022-10-16T05:32:47;97583.50;;;12.56;69.44
34205;BME280;20471;49.680;20.074;2022-10-16T05:35:15;97583.13;;;12.52;69.36
34205;BME280;20471;49.680;20.074;2022-10-16T05:37:42;97580.95;;;12.52;69.48
34205;BME280;20471;49.680;20.074;2022-10-16T05:40:09;97581.78;;;12.52;69.50
34205;BME280;20471;49.680;20.074;2022-10-16T05:42:37;97584.18;;;12.51;69.49
34205;BME280;20471;49.680;20.074;2022-10-16T05:45:06;97590.95;;;12.51;69.54
34205;BME280;20471;49.680;20.074;2022-10-16T05:47:33;97595.34;;;12.46;69.54
34205;BME280;20471;49.680;20.074;2022-10-16T05:50:00;97597.06;;;12.40;69.60
34205;BME280;20471;49.680;20.074;2022-10-16T05:52:27;97599.68;;;12.38;69.68
34205;BME280;20471;49.680;20.074;2022-10-16T05:54:54;97593.34;;;12.35;69.79
34205;BME280;20471;49.680;20.074;2022-10-16T05:57:20;97600.32;;;12.33;69.91
34205;BME280;20471;49.680;20.074;2022-10-16T05:59:47;97602.72;;;12.32;70.03
34205;BME280;20471;49.680;20.074;2022-10-16T06:02:14;97607.39;;;12.34;70.11
34205;BME280;20471;49.680;20.074;2022-10-16T06:04:41;97600.82;;;12.39;70.14
34205;BME280;20471;49.680;20.074;2022-10-16T06:07:08;97613.04;;;12.48;70.15
34205;BME280;20471;49.680;20.074;2022-10-16T06:09:34;97616.25;;;12.54;70.14
34205;BME280;20471;49.680;20.074;2022-10-16T06:12:01;97617.75;;;12.59;70.15
34205;BME280;20471;49.680;20.074;2022-10-16T06:14:27;97615.23;;;12.65;70.19
34205;BME280;20471;49.680;20.074;2022-10-16T06:16:54;97619.45;;;12.70;70.24
34205;BME280;20471;49.680;20.074;2022-10-16T06:19:20;97620.98;;;12.75;70.32
34205;BME280;20471;49.680;20.074;2022-10-16T06:21:48;97626.03;;;12.80;70.34
34205;BME280;20471;49.680;20.074;2022-10-16T06:24:15;97627.05;;;12.86;70.37
34205;BME280;20471;49.680;20.074;2022-10-16T06:26:41;97628.58;;;12.91;70.35
34205;BME280;20471;49.680;20.074;2022-10-16T06:29:08;97632.88;;;12.98;70.29
34205;BME280;20471;49.680;20.074;2022-10-16T06:31:34;97638.23;;;13.05;70.14
34205;BME280;20471;49.680;20.074;2022-10-16T06:34:01;97637.45;;;13.14;70.10
34205;BME280;20471;49.680;20.074;2022-10-16T06:36:29;97640.87;;;13.18;70.13
34205;BME280;20471;49.680;20.074;2022-10-16T06:38:56;97651.05;;;13.23;70.18
34205;BME280;20471;49.680;20.074;2022-10-16T06:41:23;97643.09;;;13.28;70.14
34205;BME280;20471;49.680;20.074;2022-10-16T06:43:50;97645.73;;;13.34;70.12
34205;BME280;20471;49.680;20.074;2022-10-16T06:46:21;97643.25;;;13.42;69.98
34205;BME280;20471;49.680;20.074;2022-10-16T06:48:48;97650.28;;;13.50;70.04
34205;BME280;20471;49.680;20.074;2022-10-16T06:51:17;97654.49;;;13.55;69.83
34205;BME280;20471;49.680;20.074;2022-10-16T06:53:47;97667.78;;;13.63;69.85
34205;BME280;20471;49.680;20.074;2022-10-16T06:56:21;97662.28;;;13.69;69.83
34205;BME280;20471;49.680;20.074;2022-10-16T06:58:51;97672.24;;;13.76;69.46
34205;BME280;20471;49.680;20.074;2022-10-16T07:01:21;97669.67;;;13.81;69.23
34205;BME280;20471;49.680;20.074;2022-10-16T07:03:48;97666.90;;;13.87;69.09
34205;BME280;20471;49.680;20.074;2022-10-16T07:06:17;97678.50;;;13.94;69.16
34205;BME280;20471;49.680;20.074;2022-10-16T07:08:46;97674.06;;;14.00;69.08
34205;BME280;20471;49.680;20.074;2022-10-16T07:11:16;97680.98;;;14.05;69.12
34205;BME280;20471;49.680;20.074;2022-10-16T07:13:45;97676.23;;;14.10;69.02
34205;BME280;20471;49.680;20.074;2022-10-16T07:16:21;97683.98;;;14.15;68.82
34205;BME280;20471;49.680;20.074;2022-10-16T07:18:49;97686.02;;;14.29;68.79
34205;BME280;20471;49.680;20.074;2022-10-16T07:21:19;97681.66;;;14.46;68.69
34205;BME280;20471;49.680;20.074;2022-10-16T07:23:53;97684.20;;;14.59;68.72
34205;BME280;20471;49.680;20.074;2022-10-16T07:26:22;97689.67;;;14.71;68.45
34205;BME280;20471;49.680;20.074;2022-10-16T07:28:49;97690.77;;;14.82;68.17
34205;BME280;20471;49.680;20.074;2022-10-16T07:31:17;97695.42;;;14.93;67.80
34205;BME280;20471;49.680;20.074;2022-10-16T07:33:46;97699.45;;;15.02;67.75
34205;BME280;20471;49.680;20.074;2022-10-16T07:36:15;97691.87;;;15.25;67.73
34205;BME280;20471;49.680;20.074;2022-10-16T07:38:43;97692.55;;;15.41;67.48
34205;BME280;20471;49.680;20.074;2022-10-16T07:41:12;97692.23;;;15.61;67.33
34205;BME280;20471;49.680;20.074;2022-10-16T07:43:46;97696.14;;;15.88;66.93
34205;BME280;20471;49.680;20.074;2022-10-16T07:46:14;97690.90;;;16.10;66.46
34205;BME280;20471;49.680;20.074;2022-10-16T07:48:41;97689.27;;;16.23;65.59
34205;BME280;20471;49.680;20.074;2022-10-16T07:51:09;97683.80;;;16.35;65.53
34205;BME280;20471;49.680;20.074;2022-10-16T07:53:36;97682.75;;;16.50;65.49
34205;BME280;20471;49.680;20.074;2022-10-16T07:56:04;97683.75;;;16.72;65.26
34205;BME280;20471;49.680;20.074;2022-10-16T07:58:33;97686.02;;;16.92;65.05
34205;BME280;20471;49.680;20.074;2022-10-16T08:01:05;97692.98;;;17.14;64.84
34205;BME280;20471;49.680;20.074;2022-10-16T08:03:33;97687.91;;;17.37;64.60
34205;BME280;20471;49.680;20.074;2022-10-16T08:06:00;97692.86;;;17.56;64.15
34205;BME280;20471;49.680;20.074;2022-10-16T08:08:27;97688.17;;;17.69;63.70
34205;BME280;20471;49.680;20.074;2022-10-16T08:10:54;97691.23;;;17.72;63.11
34205;BME280;20471;49.680;20.074;2022-10-16T08:13:20;97688.36;;;17.81;62.65
34205;BME280;20471;49.680;20.074;2022-10-16T08:15:47;97691.42;;;17.85;62.62
34205;BME280;20471;49.680;20.074;2022-10-16T08:18:15;97697.32;;;17.96;62.41
34205;BME280;20471;49.680;20.074;2022-10-16T08:20:42;97691.91;;;17.98;62.04
34205;BME280;20471;49.680;20.074;2022-10-16T08:23:11;97698.78;;;18.04;62.27
34205;BME280;20471;49.680;20.074;2022-10-16T08:25:39;97696.39;;;18.07;62.25
34205;BME280;20471;49.680;20.074;2022-10-16T08:28:08;97699.17;;;18.12;62.05
34205;BME280;20471;49.680;20.074;2022-10-16T08:30:37;97698.17;;;18.18;61.38
34205;BME280;20471;49.680;20.074;2022-10-16T08:33:03;97703.43;;;18.22;61.21
34205;BME280;20471;49.680;20.074;2022-10-16T08:35:30;97706.00;;;18.31;60.99
34205;BME280;20471;49.680;20.074;2022-10-16T08:37:57;97704.47;;;18.41;60.85
34205;BME280;20471;49.680;20.074;2022-10-16T08:40:31;97705.71;;;18.52;60.47
34205;BME280;20471;49.680;20.074;2022-10-16T08:51:09;97707.23;;;18.62;58.81
34205;BME280;20471;49.680;20.074;2022-10-16T08:53:44;97714.48;;;18.54;58.37
34205;BME280;20471;49.680;20.074;2022-10-16T08:56:13;97711.09;;;18.45;58.55
34205;BME280;20471;49.680;20.074;2022-10-16T08:58:40;97713.00;;;18.44;58.83
34205;BME280;20471;49.680;20.074;2022-10-16T09:01:12;97713.50;;;18.41;58.11
34205;BME280;20471;49.680;20.074;2022-10-16T09:10:01;97701.45;;;18.40;58.08
34205;BME280;20471;49.680;20.074;2022-10-16T09:15:16;97704.22;;;18.42;58.08
34205;BME280;20471;49.680;20.074;2022-10-16T09:20:57;97699.16;;;18.53;57.94
34205;BME280;20471;49.680;20.074;2022-10-16T09:23:28;97704.92;;;18.54;57.60
34205;BME280;20471;49.680;20.074;2022-10-16T09:25:57;97716.50;;;18.59;57.62
34205;BME280;20471;49.680;20.074;2022-10-16T09:28:24;97722.80;;;18.62;57.38
34205;BME280;20471;49.680;20.074;2022-10-16T09:30:51;97724.75;;;18.64;57.21
34205;BME280;20471;49.680;20.074;2022-10-16T09:33:20;97728.84;;;18.64;56.94
34205;BME280;20471;49.680;20.074;2022-10-16T09:35:54;97723.88;;;18.61;57.04
34205;BME280;20471;49.680;20.074;2022-10-16T09:38:30;97729.63;;;18.59;56.81
34205;BME280;20471;49.680;20.074;2022-10-16T09:41:00;97725.46;;;18.57;56.70
34205;BME280;20471;49.680;20.074;2022-10-16T09:43:39;97714.20;;;18.53;56.61
34205;BME280;20471;49.680;20.074;2022-10-16T09:46:21;97723.73;;;18.51;56.72
34205;BME280;20471;49.680;20.074;2022-10-16T09:48:50;97733.80;;;18.48;56.56
34205;BME280;20471;49.680;20.074;2022-10-16T09:51:22;97728.28;;;18.43;56.39
34205;BME280;20471;49.680;20.074;2022-10-16T09:54:12;97734.58;;;18.43;56.49
34205;BME280;20471;49.680;20.074;2022-10-16T09:56:38;97731.88;;;18.46;56.41
34205;BME280;20471;49.680;20.074;2022-10-16T09:59:14;97724.22;;;18.45;56.50
34205;BME280;20471;49.680;20.074;2022-10-16T10:01:45;97723.16;;;18.49;56.54
34205;BME280;20471;49.680;20.074;2022-10-16T10:04:12;97715.67;;;18.58;56.45
34205;BME280;20471;49.680;20.074;2022-10-16T10:06:50;97708.45;;;18.74;56.37
34205;BME280;20471;49.680;20.074;2022-10-16T10:12:04;97704.25;;;19.15;55.82
34205;BME280;20471;49.680;20.074;2022-10-16T10:14:40;97705.77;;;19.30;55.71
34205;BME280;20471;49.680;20.074;2022-10-16T10:17:12;97706.42;;;19.45;55.65
34205;BME280;20471;49.680;20.074;2022-10-16T10:19:55;97704.63;;;19.53;55.01
34205;BME280;20471;49.680;20.074;2022-10-16T10:31:06;97700.31;;;19.62;54.23
34205;BME280;20471;49.680;20.074;2022-10-16T10:34:26;97704.73;;;19.68;54.23
34205;BME280;20471;49.680;20.074;2022-10-16T10:36:34;97707.00;;;19.76;54.29
34205;BME280;20471;49.680;20.074;2022-10-16T10:39:25;97709.23;;;19.85;53.98
34205;BME280;20471;49.680;20.074;2022-10-16T10:42:13;97712.00;;;19.87;53.78
34205;BME280;20471;49.680;20.074;2022-10-16T10:50:32;97708.48;;;19.94;52.77
34205;BME280;20471;49.680;20.074;2022-10-16T10:53:36;97704.11;;;19.96;52.49
34205;BME280;20471;49.680;20.074;2022-10-16T10:56:16;97706.61;;;20.00;52.32
34205;BME280;20471;49.680;20.074;2022-10-16T11:01:54;97694.80;;;19.97;51.49
34205;BME280;20471;49.680;20.074;2022-10-16T11:07:38;97694.95;;;19.77;51.13
34205;BME280;20471;49.680;20.074;2022-10-16T11:12:55;97698.47;;;19.73;50.83
34205;BME280;20471;49.680;20.074;2022-10-16T11:15:21;97691.58;;;19.65;50.97
34205;BME280;20471;49.680;20.074;2022-10-16T11:18:08;97695.69;;;19.65;51.23
34205;BME280;20471;49.680;20.074;2022-10-16T11:20:43;97700.37;;;19.67;51.67
34205;BME280;20471;49.680;20.074;2022-10-16T11:25:59;97710.44;;;19.62;51.51
34205;BME280;20471;49.680;20.074;2022-10-16T11:37:14;97716.36;;;19.49;51.85
34205;BME280;20471;49.680;20.074;2022-10-16T11:39:48;97722.03;;;19.42;51.97
34205;BME280;20471;49.680;20.074;2022-10-16T11:42:19;97721.97;;;19.37;51.82
34205;BME280;20471;49.680;20.074;2022-10-16T11:47:52;97722.77;;;19.35;52.31
34205;BME280;20471;49.680;20.074;2022-10-16T11:50:56;97721.94;;;19.34;51.92
34205;BME280;20471;49.680;20.074;2022-10-16T11:56:18;97721.66;;;19.31;51.99
34205;BME280;20471;49.680;20.074;2022-10-16T12:01:42;97720.19;;;19.23;51.96
34205;BME280;20471;49.680;20.074;2022-10-16T12:07:03;97725.34;;;19.17;52.22
34205;BME280;20471;49.680;20.074;2022-10-16T12:09:38;97728.63;;;19.17;52.13
34205;BME280;20471;49.680;20.074;2022-10-16T12:17:51;97718.47;;;19.15;52.41
34205;BME280;20471;49.680;20.074;2022-10-16T12:20:24;97716.53;;;19.13;52.52
34205;BME280;20471;49.680;20.074;2022-10-16T12:22:59;97720.92;;;19.14;52.69
34205;BME280;20471;49.680;20.074;2022-10-16T12:25:32;97721.53;;;19.18;52.93
34205;BME280;20471;49.680;20.074;2022-10-16T12:28:20;97727.58;;;19.23;53.03
34205;BME280;20471;49.680;20.074;2022-10-16T12:31:03;97728.72;;;19.27;52.98
34205;BME280;20471;49.680;20.074;2022-10-16T12:33:29;97732.89;;;19.32;52.91
34205;BME280;20471;49.680;20.074;2022-10-16T12:35:59;97730.72;;;19.36;52.49
34205;BME280;20471;49.680;20.074;2022-10-16T12:41:32;97733.61;;;19.49;52.44
34205;BME280;20471;49.680;20.074;2022-10-16T12:44:00;97730.92;;;19.54;52.21
34205;BME280;20471;49.680;20.074;2022-10-16T12:51:56;97732.66;;;19.65;52.27
34205;BME280;20471;49.680;20.074;2022-10-16T12:54:34;97729.92;;;19.65;52.18
34205;BME280;20471;49.680;20.074;2022-10-16T13:14:39;97736.06;;;19.83;51.79
34205;BME280;20471;49.680;20.074;2022-10-16T13:20:22;97734.73;;;20.27;51.73
34205;BME280;20471;49.680;20.074;2022-10-16T13:28:34;97742.49;;;21.05;51.30
34205;BME280;20471;49.680;20.074;2022-10-16T13:31:02;97743.70;;;21.35;50.70
34205;BME280;20471;49.680;20.074;2022-10-16T13:33:38;97754.42;;;21.54;50.31
34205;BME280;20471;49.680;20.074;2022-10-16T13:36:06;97761.31;;;21.72;50.05
34205;BME280;20471;49.680;20.074;2022-10-16T13:38:35;97751.13;;;21.87;49.71
34205;BME280;20471;49.680;20.074;2022-10-16T13:41:05;97755.83;;;22.05;49.75
34205;BME280;20471;49.680;20.074;2022-10-16T13:43:42;97755.24;;;22.23;49.47
34205;BME280;20471;49.680;20.074;2022-10-16T13:48:45;97760.99;;;22.37;48.98
34205;BME280;20471;49.680;20.074;2022-10-16T13:51:24;97765.39;;;22.40;49.04
34205;BME280;20471;49.680;20.074;2022-10-16T13:53:54;97763.77;;;22.29;48.46
34205;BME280;20471;49.680;20.074;2022-10-16T13:56:22;97768.46;;;22.16;48.43
34205;BME280;20471;49.680;20.074;2022-10-16T13:59:20;97765.73;;;22.06;48.76
34205;BME280;20471;49.680;20.074;2022-10-16T14:01:40;97773.68;;;21.95;49.00
34205;BME280;20471;49.680;20.074;2022-10-16T14:04:11;97773.11;;;21.87;48.99
34205;BME280;20471;49.680;20.074;2022-10-16T14:06:41;97776.14;;;21.78;49.14
34205;BME280;20471;49.680;20.074;2022-10-16T14:09:27;97777.23;;;21.75;49.15
34205;BME280;20471;49.680;20.074;2022-10-16T14:11:58;97774.77;;;21.68;49.23
34205;BME280;20471;49.680;20.074;2022-10-16T14:14:41;97776.97;;;21.71;49.46
34205;BME280;20471;49.680;20.074;2022-10-16T14:17:19;97784.66;;;21.79;49.49
34205;BME280;20471;49.680;20.074;2022-10-16T14:19:58;97789.88;;;21.88;49.42
34205;BME280;20471;49.680;20.074;2022-10-16T14:22:30;97788.23;;;21.87;49.26
34205;BME280;20471;49.680;20.074;2022-10-16T14:25:47;97787.42;;;21.84;49.25
34205;BME280;20471;49.680;20.074;2022-10-16T14:28:00;97786.30;;;21.75;48.99
34205;BME280;20471;49.680;20.074;2022-10-16T14:30:30;97788.48;;;21.63;49.29
34205;BME280;20471;49.680;20.074;2022-10-16T14:33:02;97777.45;;;21.23;49.11
34205;BME280;20471;49.680;20.074;2022-10-16T14:35:33;97777.45;;;21.23;49.11
34205;BME280;20471;49.680;20.074;2022-10-16T14:38:03;97794.48;;;21.32;49.46
34205;BME280;20471;49.680;20.074;2022-10-16T14:40:33;97798.58;;;21.22;49.57
34205;BME280;20471;49.680;20.074;2022-10-16T14:43:04;97793.63;;;21.19;50.02
34205;BME280;20471;49.680;20.074;2022-10-16T14:45:33;97793.30;;;21.10;50.36
34205;BME280;20471;49.680;20.074;2022-10-16T14:48:05;97788.02;;;21.01;50.65
34205;BME280;20471;49.680;20.074;2022-10-16T14:50:32;97785.53;;;20.92;50.58
34205;BME280;20471;49.680;20.074;2022-10-16T14:52:59;97788.80;;;20.84;50.73
34205;BME280;20471;49.680;20.074;2022-10-16T14:55:25;97789.32;;;20.76;51.25
34205;BME280;20471;49.680;20.074;2022-10-16T14:57:52;97789.32;;;20.76;51.25
34205;BME280;20471;49.680;20.074;2022-10-16T15:00:23;97781.84;;;20.66;50.97
34205;BME280;20471;49.680;20.074;2022-10-16T15:02:51;97790.84;;;20.52;51.45
34205;BME280;20471;49.680;20.074;2022-10-16T15:05:22;97789.66;;;20.42;51.44
34205;BME280;20471;49.680;20.074;2022-10-16T15:07:55;97793.69;;;20.32;51.27
34205;BME280;20471;49.680;20.074;2022-10-16T15:10:23;97790.89;;;20.22;51.11
34205;BME280;20471;49.680;20.074;2022-10-16T15:12:52;97791.13;;;20.18;51.57
34205;BME280;20471;49.680;20.074;2022-10-16T15:15:36;97789.97;;;20.09;51.80
34205;BME280;20471;49.680;20.074;2022-10-16T15:18:04;97792.89;;;19.97;52.07